sensor_id;sensor_type;location;lat;lon;timestamp;temperature;humidity
51559;DHT22;61650;48.882;2.092;2023-07-20T00:01:31;15.50;81.40
51559;DHT22;61650;48.882;2.092;2023-07-20T00:03:56;15.40;81.80
51559;DHT22;61650;48.882;2.092;2023-07-20T00:06:23;15.30;82.30
51559;DHT22;61650;48.882;2.092;2023-07-20T00:08:53;15.20;82.70
51559;DHT22;61650;48.882;2.092;2023-07-20T00:11:20;15.20;83.20
51559;DHT22;61650;48.882;2.092;2023-07-20T00:13:45;15.10;83.50
51559;DHT22;61650;48.882;2.092;2023-07-20T00:16:11;15.10;83.60
51559;DHT22;61650;48.882;2.092;2023-07-20T00:18:37;15.10;83.70
51559;DHT22;61650;48.882;2.092;2023-07-20T00:21:02;15.00;83.90
51559;DHT22;61650;48.882;2.092;2023-07-20T00:23:29;15.00;84.10
51559;DHT22;61650;48.882;2.092;2023-07-20T00:25:55;15.00;84.30
51559;DHT22;61650;48.882;2.092;2023-07-20T00:28:21;14.90;84.50
51559;DHT22;61650;48.882;2.092;2023-07-20T00:30:46;15.00;84.50
51559;DHT22;61650;48.882;2.092;2023-07-20T00:33:12;14.90;84.60
51559;DHT22;61650;48.882;2.092;2023-07-20T00:35:39;14.90;84.70
51559;DHT22;61650;48.882;2.092;2023-07-20T00:38:05;14.90;84.60
51559;DHT22;61650;48.882;2.092;2023-07-20T00:40:40;14.90;84.60
51559;DHT22;61650;48.882;2.092;2023-07-20T00:43:06;15.00;84.60
51559;DHT22;61650;48.882;2.092;2023-07-20T00:45:33;14.90;84.60
51559;DHT22;61650;48.882;2.092;2023-07-20T00:48:00;14.90;84.70
51559;DHT22;61650;48.882;2.092;2023-07-20T00:50:26;14.90;84.80
51559;DHT22;61650;48.882;2.092;2023-07-20T00:52:54;14.90;85.20
51559;DHT22;61650;48.882;2.092;2023-07-20T00:55:20;14.80;85.20
51559;DHT22;61650;48.882;2.092;2023-07-20T00:57:46;14.80;85.20
51559;DHT22;61650;48.882;2.092;2023-07-20T01:00:12;14.90;85.00
51559;DHT22;61650;48.882;2.092;2023-07-20T01:02:37;14.90;84.80
51559;DHT22;61650;48.882;2.092;2023-07-20T01:05:04;14.90;84.60
51559;DHT22;61650;48.882;2.092;2023-07-20T01:10:10;14.80;85.00
51559;DHT22;61650;48.882;2.092;2023-07-20T01:12:42;14.80;85.10
51559;DHT22;61650;48.882;2.092;2023-07-20T01:15:09;14.70;85.50
51559;DHT22;61650;48.882;2.092;2023-07-20T01:17:35;14.60;85.80
51559;DHT22;61650;48.882;2.092;2023-07-20T01:20:01;14.50;86.60
51559;DHT22;61650;48.882;2.092;2023-07-20T01:25:51;14.50;86.90
51559;DHT22;61650;48.882;2.092;2023-07-20T01:31:24;14.40;86.90
51559;DHT22;61650;48.882;2.092;2023-07-20T01:33:52;14.40;86.80
51559;DHT22;61650;48.882;2.092;2023-07-20T01:36:18;14.40;86.80
51559;DHT22;61650;48.882;2.092;2023-07-20T01:38:44;14.40;86.60
51559;DHT22;61650;48.882;2.092;2023-07-20T01:41:11;14.50;86.60
51559;DHT22;61650;48.882;2.092;2023-07-20T01:43:36;14.40;86.70
51559;DHT22;61650;48.882;2.092;2023-07-20T01:46:02;14.40;87.00
51559;DHT22;61650;48.882;2.092;2023-07-20T01:48:28;14.30;87.30
51559;DHT22;61650;48.882;2.092;2023-07-20T01:50:53;14.30;87.40
51559;DHT22;61650;48.882;2.092;2023-07-20T01:53:20;14.30;87.60
51559;DHT22;61650;48.882;2.092;2023-07-20T01:55:46;14.20;87.80
51559;DHT22;61650;48.882;2.092;2023-07-20T01:58:12;14.20;88.00
51559;DHT22;61650;48.882;2.092;2023-07-20T02:00:38;14.20;88.30
51559;DHT22;61650;48.882;2.092;2023-07-20T02:03:03;14.20;88.40
51559;DHT22;61650;48.882;2.092;2023-07-20T02:05:29;14.20;88.60
51559;DHT22;61650;48.882;2.092;2023-07-20T02:07:54;14.20;88.60
51559;DHT22;61650;48.882;2.092;2023-07-20T02:10:20;14.20;88.60
51559;DHT22;61650;48.882;2.092;2023-07-20T02:12:46;14.10;88.70
51559;DHT22;61650;48.882;2.092;2023-07-20T02:15:11;14.10;88.80
51559;DHT22;61650;48.882;2.092;2023-07-20T02:17:39;14.10;89.00
51559;DHT22;61650;48.882;2.092;2023-07-20T02:20:07;14.10;89.20
51559;DHT22;61650;48.882;2.092;2023-07-20T02:22:34;14.10;89.40
51559;DHT22;61650;48.882;2.092;2023-07-20T02:25:00;14.10;89.20
51559;DHT22;61650;48.882;2.092;2023-07-20T02:27:25;14.10;89.00
51559;DHT22;61650;48.882;2.092;2023-07-20T02:29:51;14.00;88.80
51559;DHT22;61650;48.882;2.092;2023-07-20T02:32:16;14.00;89.20
51559;DHT22;61650;48.882;2.092;2023-07-20T02:34:42;13.90;89.30
51559;DHT22;61650;48.882;2.092;2023-07-20T02:37:07;13.90;89.40
51559;DHT22;61650;48.882;2.092;2023-07-20T02:39:33;13.80;89.40
51559;DHT22;61650;48.882;2.092;2023-07-20T02:41:59;13.90;89.60
51559;DHT22;61650;48.882;2.092;2023-07-20T02:44:24;13.90;89.60
51559;DHT22;61650;48.882;2.092;2023-07-20T02:46:50;14.00;89.30
51559;DHT22;61650;48.882;2.092;2023-07-20T02:49:16;13.90;89.40
51559;DHT22;61650;48.882;2.092;2023-07-20T02:51:42;13.90;89.50
51559;DHT22;61650;48.882;2.092;2023-07-20T02:54:07;13.90;89.60
51559;DHT22;61650;48.882;2.092;2023-07-20T02:56:33;13.90;89.60
51559;DHT22;61650;48.882;2.092;2023-07-20T02:59:01;13.90;89.70
51559;DHT22;61650;48.882;2.092;2023-07-20T03:01:27;13.90;89.60
51559;DHT22;61650;48.882;2.092;2023-07-20T03:03:54;13.90;89.70
51559;DHT22;61650;48.882;2.092;2023-07-20T03:06:20;13.80;89.60
51559;DHT22;61650;48.882;2.092;2023-07-20T03:08:45;13.80;89.80
51559;DHT22;61650;48.882;2.092;2023-07-20T03:11:14;13.80;90.00
51559;DHT22;61650;48.882;2.092;2023-07-20T03:13:43;13.80;89.70
51559;DHT22;61650;48.882;2.092;2023-07-20T03:16:10;13.90;89.30
51559;DHT22;61650;48.882;2.092;2023-07-20T03:18:37;14.00;89.00
51559;DHT22;61650;48.882;2.092;2023-07-20T03:21:04;14.10;88.40
51559;DHT22;61650;48.882;2.092;2023-07-20T03:23:30;14.30;87.70
51559;DHT22;61650;48.882;2.092;2023-07-20T03:25:56;14.20;87.20
51559;DHT22;61650;48.882;2.092;2023-07-20T03:28:21;14.20;87.40
51559;DHT22;61650;48.882;2.092;2023-07-20T03:30:53;14.10;87.60
51559;DHT22;61650;48.882;2.092;2023-07-20T03:33:19;14.10;87.60
51559;DHT22;61650;48.882;2.092;2023-07-20T03:35:45;14.10;87.60
51559;DHT22;61650;48.882;2.092;2023-07-20T03:38:11;14.10;87.50
51559;DHT22;61650;48.882;2.092;2023-07-20T03:40:36;14.00;88.10
51559;DHT22;61650;48.882;2.092;2023-07-20T03:43:02;13.80;88.80
51559;DHT22;61650;48.882;2.092;2023-07-20T03:45:28;13.80;89.30
51559;DHT22;61650;48.882;2.092;2023-07-20T03:47:54;13.70;89.40
51559;DHT22;61650;48.882;2.092;2023-07-20T03:50:19;13.60;89.70
51559;DHT22;61650;48.882;2.092;2023-07-20T03:52:45;13.60;90.10
51559;DHT22;61650;48.882;2.092;2023-07-20T03:55:10;13.50;90.50
51559;DHT22;61650;48.882;2.092;2023-07-20T03:57:36;13.50;90.90
51559;DHT22;61650;48.882;2.092;2023-07-20T04:00:02;13.50;90.80
51559;DHT22;61650;48.882;2.092;2023-07-20T04:02:29;13.50;90.60
51559;DHT22;61650;48.882;2.092;2023-07-20T04:04:55;13.50;90.40
51559;DHT22;61650;48.882;2.092;2023-07-20T04:07:20;13.50;90.20
51559;DHT22;61650;48.882;2.092;2023-07-20T04:09:46;13.60;90.10
51559;DHT22;61650;48.882;2.092;2023-07-20T04:12:11;13.60;89.70
51559;DHT22;61650;48.882;2.092;2023-07-20T04:14:37;13.60;89.40
51559;DHT22;61650;48.882;2.092;2023-07-20T04:17:02;13.70;89.40
51559;DHT22;61650;48.882;2.092;2023-07-20T04:19:29;13.80;88.40
51559;DHT22;61650;48.882;2.092;2023-07-20T04:21:55;13.80;87.50
51559;DHT22;61650;48.882;2.092;2023-07-20T04:24:21;13.70;87.70
51559;DHT22;61650;48.882;2.092;2023-07-20T04:26:46;13.60;88.20
51559;DHT22;61650;48.882;2.092;2023-07-20T04:29:12;13.50;88.60
51559;DHT22;61650;48.882;2.092;2023-07-20T04:31:37;13.50;88.80
51559;DHT22;61650;48.882;2.092;2023-07-20T04:34:03;13.40;89.10
51559;DHT22;61650;48.882;2.092;2023-07-20T04:36:28;13.30;89.40
51559;DHT22;61650;48.882;2.092;2023-07-20T04:38:54;13.20;89.80
51559;DHT22;61650;48.882;2.092;2023-07-20T04:41:19;13.10;90.10
51559;DHT22;61650;48.882;2.092;2023-07-20T04:43:46;13.10;90.80
51559;DHT22;61650;48.882;2.092;2023-07-20T04:46:12;13.10;91.10
51559;DHT22;61650;48.882;2.092;2023-07-20T04:48:38;13.10;91.20
51559;DHT22;61650;48.882;2.092;2023-07-20T04:51:04;13.10;91.10
51559;DHT22;61650;48.882;2.092;2023-07-20T04:53:29;13.10;91.10
51559;DHT22;61650;48.882;2.092;2023-07-20T04:55:56;13.20;90.90
51559;DHT22;61650;48.882;2.092;2023-07-20T04:58:22;13.20;91.10
51559;DHT22;61650;48.882;2.092;2023-07-20T05:00:49;13.30;91.20
51559;DHT22;61650;48.882;2.092;2023-07-20T05:03:14;13.30;91.50
51559;DHT22;61650;48.882;2.092;2023-07-20T05:05:40;13.40;91.50
51559;DHT22;61650;48.882;2.092;2023-07-20T05:08:06;13.40;91.70
51559;DHT22;61650;48.882;2.092;2023-07-20T05:10:31;13.50;91.70
51559;DHT22;61650;48.882;2.092;2023-07-20T05:12:58;13.60;91.50
51559;DHT22;61650;48.882;2.092;2023-07-20T05:15:24;13.70;91.50
51559;DHT22;61650;48.882;2.092;2023-07-20T05:17:49;13.80;91.50
51559;DHT22;61650;48.882;2.092;2023-07-20T05:20:15;13.90;91.60
51559;DHT22;61650;48.882;2.092;2023-07-20T05:22:41;14.00;91.60
51559;DHT22;61650;48.882;2.092;2023-07-20T05:25:10;14.10;91.60
51559;DHT22;61650;48.882;2.092;2023-07-20T05:27:37;14.20;91.80
51559;DHT22;61650;48.882;2.092;2023-07-20T05:30:04;14.30;92.00
51559;DHT22;61650;48.882;2.092;2023-07-20T05:32:29;14.40;91.60
51559;DHT22;61650;48.882;2.092;2023-07-20T05:34:55;14.60;91.50
51559;DHT22;61650;48.882;2.092;2023-07-20T05:37:21;14.70;90.80
51559;DHT22;61650;48.882;2.092;2023-07-20T05:39:46;14.80;90.50
51559;DHT22;61650;48.882;2.092;2023-07-20T05:42:12;14.90;90.00
51559;DHT22;61650;48.882;2.092;2023-07-20T05:44:38;14.90;89.70
51559;DHT22;61650;48.882;2.092;2023-07-20T05:47:04;15.00;89.40
51559;DHT22;61650;48.882;2.092;2023-07-20T05:49:29;15.10;88.90
51559;DHT22;61650;48.882;2.092;2023-07-20T05:51:56;15.10;88.70
51559;DHT22;61650;48.882;2.092;2023-07-20T05:54:23;15.20;88.60
51559;DHT22;61650;48.882;2.092;2023-07-20T05:56:49;15.30;88.20
51559;DHT22;61650;48.882;2.092;2023-07-20T05:59:15;15.30;87.90
51559;DHT22;61650;48.882;2.092;2023-07-20T06:01:41;15.40;87.80
51559;DHT22;61650;48.882;2.092;2023-07-20T06:04:07;15.40;87.60
51559;DHT22;61650;48.882;2.092;2023-07-20T06:06:33;15.50;87.70
51559;DHT22;61650;48.882;2.092;2023-07-20T06:08:59;15.60;87.60
51559;DHT22;61650;48.882;2.092;2023-07-20T06:11:28;15.60;87.30
51559;DHT22;61650;48.882;2.092;2023-07-20T06:13:54;15.80;86.90
51559;DHT22;61650;48.882;2.092;2023-07-20T06:16:19;15.90;86.50
51559;DHT22;61650;48.882;2.092;2023-07-20T06:18:45;16.00;86.00
51559;DHT22;61650;48.882;2.092;2023-07-20T06:21:11;16.00;85.70
51559;DHT22;61650;48.882;2.092;2023-07-20T06:23:36;16.00;85.40
51559;DHT22;61650;48.882;2.092;2023-07-20T06:26:02;16.00;85.60
51559;DHT22;61650;48.882;2.092;2023-07-20T06:28:27;15.90;85.70
51559;DHT22;61650;48.882;2.092;2023-07-20T06:31:07;16.00;85.60
51559;DHT22;61650;48.882;2.092;2023-07-20T06:33:33;16.10;85.60
51559;DHT22;61650;48.882;2.092;2023-07-20T06:36:00;16.10;85.20
51559;DHT22;61650;48.882;2.092;2023-07-20T06:38:25;16.20;84.80
51559;DHT22;61650;48.882;2.092;2023-07-20T06:40:51;16.20;84.90
51559;DHT22;61650;48.882;2.092;2023-07-20T06:43:17;16.40;84.70
51559;DHT22;61650;48.882;2.092;2023-07-20T06:45:43;16.50;83.90
51559;DHT22;61650;48.882;2.092;2023-07-20T06:48:09;16.60;82.80
51559;DHT22;61650;48.882;2.092;2023-07-20T06:50:35;16.50;83.10
51559;DHT22;61650;48.882;2.092;2023-07-20T06:53:00;16.50;83.40
51559;DHT22;61650;48.882;2.092;2023-07-20T06:55:28;16.50;83.60
51559;DHT22;61650;48.882;2.092;2023-07-20T06:57:54;16.70;83.40
51559;DHT22;61650;48.882;2.092;2023-07-20T07:00:20;16.90;82.00
51559;DHT22;61650;48.882;2.092;2023-07-20T07:02:45;16.90;82.00
51559;DHT22;61650;48.882;2.092;2023-07-20T07:05:11;17.00;82.20
51559;DHT22;61650;48.882;2.092;2023-07-20T07:07:38;17.10;81.30
51559;DHT22;61650;48.882;2.092;2023-07-20T07:10:04;17.20;81.40
51559;DHT22;61650;48.882;2.092;2023-07-20T07:12:30;17.30;80.90
51559;DHT22;61650;48.882;2.092;2023-07-20T07:14:56;17.40;80.40
51559;DHT22;61650;48.882;2.092;2023-07-20T07:17:22;17.40;79.80
51559;DHT22;61650;48.882;2.092;2023-07-20T07:19:47;17.50;80.40
51559;DHT22;61650;48.882;2.092;2023-07-20T07:22:13;17.70;80.10
51559;DHT22;61650;48.882;2.092;2023-07-20T07:24:39;17.80;79.20
51559;DHT22;61650;48.882;2.092;2023-07-20T07:27:08;17.90;78.70
51559;DHT22;61650;48.882;2.092;2023-07-20T07:29:33;17.90;78.90
51559;DHT22;61650;48.882;2.092;2023-07-20T07:31:59;18.00;78.80
51559;DHT22;61650;48.882;2.092;2023-07-20T07:34:25;18.00;77.90
51559;DHT22;61650;48.882;2.092;2023-07-20T07:36:51;18.00;78.60
51559;DHT22;61650;48.882;2.092;2023-07-20T07:39:16;18.10;77.90
51559;DHT22;61650;48.882;2.092;2023-07-20T07:41:42;18.30;77.40
51559;DHT22;61650;48.882;2.092;2023-07-20T07:44:07;18.40;77.60
51559;DHT22;61650;48.882;2.092;2023-07-20T07:46:33;18.50;77.40
51559;DHT22;61650;48.882;2.092;2023-07-20T07:48:59;18.60;76.50
51559;DHT22;61650;48.882;2.092;2023-07-20T07:51:25;18.70;75.90
51559;DHT22;61650;48.882;2.092;2023-07-20T07:53:52;18.70;75.80
51559;DHT22;61650;48.882;2.092;2023-07-20T07:56:18;18.70;75.60
51559;DHT22;61650;48.882;2.092;2023-07-20T07:58:51;18.80;75.50
51559;DHT22;61650;48.882;2.092;2023-07-20T08:01:17;18.80;74.50
51559;DHT22;61650;48.882;2.092;2023-07-20T08:03:44;18.70;75.60
51559;DHT22;61650;48.882;2.092;2023-07-20T08:06:15;18.80;76.10
51559;DHT22;61650;48.882;2.092;2023-07-20T08:08:41;19.00;75.80
51559;DHT22;61650;48.882;2.092;2023-07-20T08:11:07;19.30;74.70
51559;DHT22;61650;48.882;2.092;2023-07-20T08:13:33;19.70;73.40
51559;DHT22;61650;48.882;2.092;2023-07-20T08:15:59;19.90;73.10
51559;DHT22;61650;48.882;2.092;2023-07-20T08:18:25;20.10;72.40
51559;DHT22;61650;48.882;2.092;2023-07-20T08:20:50;20.20;70.60
51559;DHT22;61650;48.882;2.092;2023-07-20T08:23:16;20.20;70.40
51559;DHT22;61650;48.882;2.092;2023-07-20T08:25:42;20.10;71.00
51559;DHT22;61650;48.882;2.092;2023-07-20T08:28:12;20.00;69.90
51559;DHT22;61650;48.882;2.092;2023-07-20T08:30:43;19.80;70.70
51559;DHT22;61650;48.882;2.092;2023-07-20T08:33:10;19.80;70.50
51559;DHT22;61650;48.882;2.092;2023-07-20T08:35:36;19.90;69.20
51559;DHT22;61650;48.882;2.092;2023-07-20T08:38:01;20.10;65.80
51559;DHT22;61650;48.882;2.092;2023-07-20T08:40:27;20.10;65.90
51559;DHT22;61650;48.882;2.092;2023-07-20T08:42:54;20.20;64.80
51559;DHT22;61650;48.882;2.092;2023-07-20T08:45:22;20.20;64.40
51559;DHT22;61650;48.882;2.092;2023-07-20T08:47:50;20.00;65.00
51559;DHT22;61650;48.882;2.092;2023-07-20T08:50:16;19.90;64.90
51559;DHT22;61650;48.882;2.092;2023-07-20T08:52:42;19.80;68.30
51559;DHT22;61650;48.882;2.092;2023-07-20T08:55:08;19.90;68.70
51559;DHT22;61650;48.882;2.092;2023-07-20T08:57:34;20.10;65.70
51559;DHT22;61650;48.882;2.092;2023-07-20T09:00:02;20.20;62.40
51559;DHT22;61650;48.882;2.092;2023-07-20T09:02:31;20.30;59.70
51559;DHT22;61650;48.882;2.092;2023-07-20T09:04:58;20.40;60.50
51559;DHT22;61650;48.882;2.092;2023-07-20T09:07:25;20.60;60.90
51559;DHT22;61650;48.882;2.092;2023-07-20T09:09:50;20.80;61.30
51559;DHT22;61650;48.882;2.092;2023-07-20T09:12:16;21.00;61.40
51559;DHT22;61650;48.882;2.092;2023-07-20T09:14:44;21.20;60.60
51559;DHT22;61650;48.882;2.092;2023-07-20T09:17:14;21.20;58.00
51559;DHT22;61650;48.882;2.092;2023-07-20T09:19:48;21.20;58.40
51559;DHT22;61650;48.882;2.092;2023-07-20T09:22:13;21.30;58.60
51559;DHT22;61650;48.882;2.092;2023-07-20T09:24:39;21.30;56.90
51559;DHT22;61650;48.882;2.092;2023-07-20T09:27:06;21.30;58.30
51559;DHT22;61650;48.882;2.092;2023-07-20T09:29:32;21.40;57.30
51559;DHT22;61650;48.882;2.092;2023-07-20T09:32:02;21.50;57.10
51559;DHT22;61650;48.882;2.092;2023-07-20T09:34:32;21.60;55.30
51559;DHT22;61650;48.882;2.092;2023-07-20T09:36:59;21.60;57.20
51559;DHT22;61650;48.882;2.092;2023-07-20T09:39:25;21.60;55.30
51559;DHT22;61650;48.882;2.092;2023-07-20T09:41:51;21.70;55.80
51559;DHT22;61650;48.882;2.092;2023-07-20T09:44:17;21.70;53.30
51559;DHT22;61650;48.882;2.092;2023-07-20T09:46:45;21.80;52.10
51559;DHT22;61650;48.882;2.092;2023-07-20T09:49:11;21.80;52.10
51559;DHT22;61650;48.882;2.092;2023-07-20T09:51:37;21.90;52.60
51559;DHT22;61650;48.882;2.092;2023-07-20T09:54:03;22.00;51.10
51559;DHT22;61650;48.882;2.092;2023-07-20T09:56:30;22.00;50.60
51559;DHT22;61650;48.882;2.092;2023-07-20T09:58:56;22.10;51.50
51559;DHT22;61650;48.882;2.092;2023-07-20T10:01:22;22.20;50.10
51559;DHT22;61650;48.882;2.092;2023-07-20T10:03:49;22.20;50.30
51559;DHT22;61650;48.882;2.092;2023-07-20T10:06:20;22.30;50.50
51559;DHT22;61650;48.882;2.092;2023-07-20T10:08:48;22.30;50.10
51559;DHT22;61650;48.882;2.092;2023-07-20T10:11:15;22.40;48.80
51559;DHT22;61650;48.882;2.092;2023-07-20T10:13:43;22.60;50.60
51559;DHT22;61650;48.882;2.092;2023-07-20T10:16:31;22.60;46.50
51559;DHT22;61650;48.882;2.092;2023-07-20T10:19:13;22.60;45.50
51559;DHT22;61650;48.882;2.092;2023-07-20T10:21:46;22.60;46.50
51559;DHT22;61650;48.882;2.092;2023-07-20T10:24:13;22.50;47.20
51559;DHT22;61650;48.882;2.092;2023-07-20T10:26:39;22.50;48.50
51559;DHT22;61650;48.882;2.092;2023-07-20T10:29:05;22.30;46.30
51559;DHT22;61650;48.882;2.092;2023-07-20T10:31:32;22.30;47.40
51559;DHT22;61650;48.882;2.092;2023-07-20T10:33:58;22.60;45.30
51559;DHT22;61650;48.882;2.092;2023-07-20T10:36:27;23.00;46.60
51559;DHT22;61650;48.882;2.092;2023-07-20T10:38:55;23.40;44.40
51559;DHT22;61650;48.882;2.092;2023-07-20T10:43:48;24.30;43.90
51559;DHT22;61650;48.882;2.092;2023-07-20T10:46:14;24.80;43.50
51559;DHT22;61650;48.882;2.092;2023-07-20T10:49:02;25.20;42.70
51559;DHT22;61650;48.882;2.092;2023-07-20T10:51:29;25.40;41.50
51559;DHT22;61650;48.882;2.092;2023-07-20T10:53:56;25.00;42.50
51559;DHT22;61650;48.882;2.092;2023-07-20T10:56:27;24.50;42.30
51559;DHT22;61650;48.882;2.092;2023-07-20T10:58:59;24.20;43.60
51559;DHT22;61650;48.882;2.092;2023-07-20T11:01:29;24.00;44.30
51559;DHT22;61650;48.882;2.092;2023-07-20T11:03:58;23.90;45.10
51559;DHT22;61650;48.882;2.092;2023-07-20T11:09:05;23.60;43.90
51559;DHT22;61650;48.882;2.092;2023-07-20T11:11:39;23.30;45.20
51559;DHT22;61650;48.882;2.092;2023-07-20T11:14:24;23.30;45.50
51559;DHT22;61650;48.882;2.092;2023-07-20T11:16:51;23.40;45.50
51559;DHT22;61650;48.882;2.092;2023-07-20T11:19:25;23.50;46.20
51559;DHT22;61650;48.882;2.092;2023-07-20T11:21:53;23.60;45.60
51559;DHT22;61650;48.882;2.092;2023-07-20T11:24:19;23.50;43.50
51559;DHT22;61650;48.882;2.092;2023-07-20T11:29:15;23.70;43.10
51559;DHT22;61650;48.882;2.092;2023-07-20T11:31:42;23.80;43.90
51559;DHT22;61650;48.882;2.092;2023-07-20T11:34:11;24.00;44.00
51559;DHT22;61650;48.882;2.092;2023-07-20T11:36:41;24.20;43.10
51559;DHT22;61650;48.882;2.092;2023-07-20T11:39:11;24.40;42.20
51559;DHT22;61650;48.882;2.092;2023-07-20T11:41:37;24.40;42.50
51559;DHT22;61650;48.882;2.092;2023-07-20T11:44:04;24.30;42.20
51559;DHT22;61650;48.882;2.092;2023-07-20T11:46:31;24.20;42.30
51559;DHT22;61650;48.882;2.092;2023-07-20T11:49:01;24.10;43.30
51559;DHT22;61650;48.882;2.092;2023-07-20T11:51:30;24.10;42.10
51559;DHT22;61650;48.882;2.092;2023-07-20T11:53:56;23.80;43.40
51559;DHT22;61650;48.882;2.092;2023-07-20T11:56:23;23.80;43.10
51559;DHT22;61650;48.882;2.092;2023-07-20T11:58:49;23.70;43.00
51559;DHT22;61650;48.882;2.092;2023-07-20T12:01:15;23.70;43.70
51559;DHT22;61650;48.882;2.092;2023-07-20T12:03:43;24.00;43.80
51559;DHT22;61650;48.882;2.092;2023-07-20T12:06:10;24.40;43.00
51559;DHT22;61650;48.882;2.092;2023-07-20T12:08:39;24.70;43.10
51559;DHT22;61650;48.882;2.092;2023-07-20T12:11:05;25.00;41.90
51559;DHT22;61650;48.882;2.092;2023-07-20T12:13:38;25.10;41.80
51559;DHT22;61650;48.882;2.092;2023-07-20T12:16:15;25.30;41.40
51559;DHT22;61650;48.882;2.092;2023-07-20T12:18:42;25.40;41.50
51559;DHT22;61650;48.882;2.092;2023-07-20T12:21:09;25.60;40.30
51559;DHT22;61650;48.882;2.092;2023-07-20T12:23:43;25.80;40.20
51559;DHT22;61650;48.882;2.092;2023-07-20T12:26:10;26.00;40.80
51559;DHT22;61650;48.882;2.092;2023-07-20T12:28:42;26.40;38.70
51559;DHT22;61650;48.882;2.092;2023-07-20T12:31:09;26.10;38.00
51559;DHT22;61650;48.882;2.092;2023-07-20T12:33:39;26.30;37.70
51559;DHT22;61650;48.882;2.092;2023-07-20T12:36:04;26.60;38.10
51559;DHT22;61650;48.882;2.092;2023-07-20T12:38:30;27.00;37.10
51559;DHT22;61650;48.882;2.092;2023-07-20T12:40:57;27.30;36.90
51559;DHT22;61650;48.882;2.092;2023-07-20T12:43:24;27.20;37.60
51559;DHT22;61650;48.882;2.092;2023-07-20T12:45:50;27.20;36.00
51559;DHT22;61650;48.882;2.092;2023-07-20T12:48:15;27.30;38.00
51559;DHT22;61650;48.882;2.092;2023-07-20T12:50:41;28.00;35.60
51559;DHT22;61650;48.882;2.092;2023-07-20T12:53:07;28.10;35.50
51559;DHT22;61650;48.882;2.092;2023-07-20T12:55:32;28.40;35.70
51559;DHT22;61650;48.882;2.092;2023-07-20T12:57:58;28.10;35.90
51559;DHT22;61650;48.882;2.092;2023-07-20T13:00:23;27.50;36.60
51559;DHT22;61650;48.882;2.092;2023-07-20T13:02:50;27.00;37.30
51559;DHT22;61650;48.882;2.092;2023-07-20T13:05:16;27.00;36.90
51559;DHT22;61650;48.882;2.092;2023-07-20T13:07:42;26.70;37.20
51559;DHT22;61650;48.882;2.092;2023-07-20T13:10:09;26.50;37.60
51559;DHT22;61650;48.882;2.092;2023-07-20T13:12:35;26.20;36.70
51559;DHT22;61650;48.882;2.092;2023-07-20T13:15:03;26.00;37.70
51559;DHT22;61650;48.882;2.092;2023-07-20T13:17:34;26.30;37.20
51559;DHT22;61650;48.882;2.092;2023-07-20T13:20:00;26.90;36.90
51559;DHT22;61650;48.882;2.092;2023-07-20T13:22:25;27.40;35.00
51559;DHT22;61650;48.882;2.092;2023-07-20T13:24:52;27.40;34.40
51559;DHT22;61650;48.882;2.092;2023-07-20T13:27:18;27.00;34.90
51559;DHT22;61650;48.882;2.092;2023-07-20T13:29:44;26.40;36.20
51559;DHT22;61650;48.882;2.092;2023-07-20T13:32:10;26.10;36.30
51559;DHT22;61650;48.882;2.092;2023-07-20T13:34:36;25.90;37.70
51559;DHT22;61650;48.882;2.092;2023-07-20T13:37:02;25.70;38.10
51559;DHT22;61650;48.882;2.092;2023-07-20T13:39:28;25.50;38.50
51559;DHT22;61650;48.882;2.092;2023-07-20T13:41:54;25.30;38.00
51559;DHT22;61650;48.882;2.092;2023-07-20T13:44:20;25.00;38.60
51559;DHT22;61650;48.882;2.092;2023-07-20T13:46:49;25.30;37.80
51559;DHT22;61650;48.882;2.092;2023-07-20T13:49:15;25.70;37.80
51559;DHT22;61650;48.882;2.092;2023-07-20T13:51:42;26.00;37.20
51559;DHT22;61650;48.882;2.092;2023-07-20T13:54:08;26.20;36.40
51559;DHT22;61650;48.882;2.092;2023-07-20T13:56:34;26.00;36.80
51559;DHT22;61650;48.882;2.092;2023-07-20T13:58:59;25.70;37.00
51559;DHT22;61650;48.882;2.092;2023-07-20T14:01:25;25.60;37.40
51559;DHT22;61650;48.882;2.092;2023-07-20T14:03:53;25.70;37.80
51559;DHT22;61650;48.882;2.092;2023-07-20T14:06:19;25.60;37.20
51559;DHT22;61650;48.882;2.092;2023-07-20T14:08:44;25.60;36.40
51559;DHT22;61650;48.882;2.092;2023-07-20T14:11:14;25.60;37.40
51559;DHT22;61650;48.882;2.092;2023-07-20T14:13:39;25.80;37.00
51559;DHT22;61650;48.882;2.092;2023-07-20T14:16:05;26.00;35.90
51559;DHT22;61650;48.882;2.092;2023-07-20T14:18:31;26.20;35.90
51559;DHT22;61650;48.882;2.092;2023-07-20T14:20:57;26.40;36.10
51559;DHT22;61650;48.882;2.092;2023-07-20T14:23:23;26.40;36.10
51559;DHT22;61650;48.882;2.092;2023-07-20T14:25:49;26.30;36.30
51559;DHT22;61650;48.882;2.092;2023-07-20T14:28:14;26.20;37.20
51559;DHT22;61650;48.882;2.092;2023-07-20T14:30:41;26.20;37.10
51559;DHT22;61650;48.882;2.092;2023-07-20T14:33:06;26.00;36.30
51559;DHT22;61650;48.882;2.092;2023-07-20T14:35:32;26.00;37.70
51559;DHT22;61650;48.882;2.092;2023-07-20T14:37:59;25.90;36.60
51559;DHT22;61650;48.882;2.092;2023-07-20T14:40:25;25.80;35.80
51559;DHT22;61650;48.882;2.092;2023-07-20T14:42:51;25.70;36.30
51559;DHT22;61650;48.882;2.092;2023-07-20T14:45:17;25.60;36.60
51559;DHT22;61650;48.882;2.092;2023-07-20T14:47:43;25.50;37.20
51559;DHT22;61650;48.882;2.092;2023-07-20T14:50:09;25.60;37.30
51559;DHT22;61650;48.882;2.092;2023-07-20T14:52:35;25.70;37.00
51559;DHT22;61650;48.882;2.092;2023-07-20T14:55:00;25.70;37.20
51559;DHT22;61650;48.882;2.092;2023-07-20T14:57:26;25.60;36.40
51559;DHT22;61650;48.882;2.092;2023-07-20T14:59:52;25.50;37.30
51559;DHT22;61650;48.882;2.092;2023-07-20T15:02:18;25.50;37.60
51559;DHT22;61650;48.882;2.092;2023-07-20T15:04:51;25.50;37.30
51559;DHT22;61650;48.882;2.092;2023-07-20T15:07:18;25.50;37.20
51559;DHT22;61650;48.882;2.092;2023-07-20T15:09:44;25.50;36.80
51559;DHT22;61650;48.882;2.092;2023-07-20T15:12:10;25.40;36.80
51559;DHT22;61650;48.882;2.092;2023-07-20T15:14:39;25.40;37.00
51559;DHT22;61650;48.882;2.092;2023-07-20T15:17:05;25.40;36.80
51559;DHT22;61650;48.882;2.092;2023-07-20T15:19:30;25.20;37.00
51559;DHT22;61650;48.882;2.092;2023-07-20T15:21:56;25.10;37.20
51559;DHT22;61650;48.882;2.092;2023-07-20T15:24:22;25.10;37.90
51559;DHT22;61650;48.882;2.092;2023-07-20T15:26:47;25.10;38.10
51559;DHT22;61650;48.882;2.092;2023-07-20T15:29:13;25.20;37.90
51559;DHT22;61650;48.882;2.092;2023-07-20T15:31:38;25.30;37.90
51559;DHT22;61650;48.882;2.092;2023-07-20T15:34:04;25.20;37.00
51559;DHT22;61650;48.882;2.092;2023-07-20T15:36:29;25.20;37.50
51559;DHT22;61650;48.882;2.092;2023-07-20T15:38:56;25.10;37.20
51559;DHT22;61650;48.882;2.092;2023-07-20T15:41:21;25.00;37.20
51559;DHT22;61650;48.882;2.092;2023-07-20T15:43:47;24.90;37.30